Time;durP1;ratioP1;P1;durP2;ratioP2;P2;SDS_P1;SDS_P2;PMS_P1;PMS_P2;Temp;Humidity;BMP_temperature;BMP_pressure;BME280_temperature;BME280_humidity;BME280_pressure;Samples;Min_cycle;Max_cycle;Signal;HPM_P1;HPM_P2
2023/08/27 00:00:05;;;;;;;1999.90;999.90;;;16.50;99.90;;;;;;5093226;28;20035;-73
2023/08/27 00:02:31;;;;;;;1999.90;999.90;;;16.50;99.90;;;;;;5091814;28;20382;-73
2023/08/27 00:04:56;;;;;;;1999.90;999.90;;;16.40;99.90;;;;;;5091435;28;20032;-69
2023/08/27 00:07:23;;;;;;;1999.90;999.90;;;16.50;99.90;;;;;;5078915;28;20074;-73
2023/08/27 00:09:49;;;;;;;1999.90;999.90;;;16.40;99.90;;;;;;5074148;28;20112;-73
2023/08/27 00:12:15;;;;;;;1999.90;999.90;;;16.40;99.90;;;;;;5072024;28;20422;-73
2023/08/27 00:14:40;;;;;;;1999.90;999.90;;;16.40;99.90;;;;;;5072722;28;20032;-69
2023/08/27 00:17:06;;;;;;;1999.90;999.90;;;16.40;99.90;;;;;;5085113;28;20074;-69
2023/08/27 00:19:32;;;;;;;1999.90;999.90;;;16.40;99.90;;;;;;5088053;28;20082;-69
2023/08/27 00:21:58;;;;;;;1999.90;999.90;;;16.40;99.90;;;;;;5090392;28;20027;-72
2023/08/27 00:24:24;;;;;;;1999.90;999.90;;;16.40;99.90;;;;;;5092626;28;20063;-73
2023/08/27 00:26:50;;;;;;;1999.90;999.90;;;16.30;99.90;;;;;;5092839;28;20020;-73
2023/08/27 00:29:19;;;;;;;1999.90;999.90;;;16.30;99.90;;;;;;5093230;28;20028;-69
2023/08/27 00:31:45;;;;;;;1999.90;999.90;;;16.30;99.90;;;;;;5080097;28;20146;-69
2023/08/27 00:34:10;;;;;;;1999.90;999.90;;;16.30;99.90;;;;;;5091254;28;20028;-73
2023/08/27 00:36:36;;;;;;;1999.90;999.90;;;16.30;99.90;;;;;;5086492;28;20026;-72
2023/08/27 00:39:02;;;;;;;1999.90;999.90;;;16.30;99.90;;;;;;5085241;28;20020;-72
2023/08/27 00:41:27;;;;;;;1999.90;999.90;;;16.30;99.90;;;;;;5094861;28;20115;-72
2023/08/27 00:43:53;;;;;;;1999.90;999.90;;;16.30;99.90;;;;;;5090401;28;20418;-69
2023/08/27 00:46:19;;;;;;;1999.90;999.90;;;16.20;99.90;;;;;;5093644;28;20475;-73
2023/08/27 00:48:45;;;;;;;1999.90;999.90;;;16.20;99.90;;;;;;5096909;28;20020;-73
2023/08/27 00:51:10;;;;;;;1999.90;999.90;;;16.20;99.90;;;;;;5096765;28;20099;-73
2023/08/27 00:53:37;;;;;;;1999.90;999.90;;;16.20;99.90;;;;;;5092958;28;20069;-73
2023/08/27 00:56:03;;;;;;;1999.90;999.90;;;16.20;99.90;;;;;;5093574;28;20028;-69
2023/08/27 00:58:29;;;;;;;1999.90;999.90;;;16.20;99.90;;;;;;5096469;28;20085;-69
2023/08/27 01:00:55;;;;;;;1999.90;999.90;;;16.10;99.90;;;;;;5096426;28;20031;-73
2023/08/27 01:03:20;;;;;;;1999.90;999.90;;;16.20;99.90;;;;;;5092398;28;20051;-73
2023/08/27 01:05:46;;;;;;;1999.90;999.90;;;16.10;99.90;;;;;;5090116;28;20490;-73
2023/08/27 01:08:21;;;;;;;1999.90;999.90;;;16.10;99.90;;;;;;5086706;28;20032;-69
2023/08/27 01:11:16;;;;;;;1999.90;999.90;;;16.10;99.90;;;;;;5088476;28;20017;-69
2023/08/27 01:13:54;;;;;;;1999.90;999.90;;;16.10;99.90;;;;;;5075968;28;20056;-73
2023/08/27 01:16:23;;;;;;;1999.90;999.90;;;16.00;99.90;;;;;;5084247;28;20039;-73
2023/08/27 01:18:51;;;;;;;1999.90;999.90;;;16.00;99.90;;;;;;5089904;28;20028;-73
2023/08/27 01:21:23;;;;;;;1999.90;999.90;;;16.00;99.90;;;;;;5088734;28;20103;-69
2023/08/27 01:23:49;;;;;;;1999.90;999.90;;;16.00;99.90;;;;;;5091725;28;20028;-73
2023/08/27 01:26:32;;;;;;;1999.90;999.90;;;16.00;99.90;;;;;;5091658;28;20031;-72
2023/08/27 01:29:21;;;;;;;1999.90;999.90;;;16.00;99.90;;;;;;5095852;28;20150;-73
2023/08/27 01:32:16;;;;;;;1999.90;999.90;;;16.00;99.90;;;;;;5088309;28;20023;-73
2023/08/27 01:34:44;;;;;;;1999.90;999.90;;;15.90;99.90;;;;;;5061829;28;20048;-69
2023/08/27 01:37:14;;;;;;;1999.90;999.90;;;16.00;99.90;;;;;;5095535;28;20024;-69
2023/08/27 01:39:43;;;;;;;1999.90;999.90;;;16.00;99.90;;;;;;5094493;28;20035;-73
2023/08/27 01:42:10;;;;;;;1999.90;999.90;;;16.00;99.90;;;;;;5095831;28;20020;-73
2023/08/27 01:44:36;;;;;;;1999.90;999.90;;;16.00;99.90;;;;;;5085582;28;20036;-72
2023/08/27 01:47:03;;;;;;;1999.90;999.90;;;16.00;99.90;;;;;;5089612;28;20024;-69
2023/08/27 01:49:28;;;;;;;1999.90;999.90;;;15.90;99.90;;;;;;5094176;28;20020;-69
2023/08/27 01:51:54;;;;;;;1999.90;999.90;;;16.00;99.90;;;;;;5094835;28;20219;-72
2023/08/27 01:54:20;;;;;;;1999.90;999.90;;;15.90;99.90;;;;;;5095281;28;20398;-69
2023/08/27 01:56:45;;;;;;;1999.90;999.90;;;15.90;99.90;;;;;;5095462;28;20024;-73
2023/08/27 01:59:11;;;;;;;1999.90;999.90;;;15.90;99.90;;;;;;5095365;28;20024;-73
2023/08/27 02:01:37;;;;;;;1999.90;999.90;;;15.80;99.90;;;;;;5095240;28;20101;-69
2023/08/27 02:04:03;;;;;;;1999.90;999.90;;;15.70;99.90;;;;;;5091624;28;20054;-70
2023/08/27 02:06:29;;;;;;;1999.90;999.90;;;15.70;99.90;;;;;;5084284;28;20055;-73
2023/08/27 02:08:55;;;;;;;1999.90;999.90;;;15.60;99.90;;;;;;5079897;28;20059;-73
2023/08/27 02:11:21;;;;;;;1999.90;999.90;;;15.60;99.90;;;;;;5087267;28;20039;-72
2023/08/27 02:13:46;;;;;;;1999.90;999.90;;;15.50;99.90;;;;;;5088537;28;20429;-69
2023/08/27 02:16:12;;;;;;;1999.90;999.90;;;15.50;99.90;;;;;;5092045;28;20454;-69
2023/08/27 02:18:38;;;;;;;1999.90;999.90;;;15.50;99.90;;;;;;5095295;28;20420;-73
2023/08/27 02:21:03;;;;;;;1999.90;999.90;;;15.40;99.90;;;;;;5094970;28;20032;-69
2023/08/27 02:23:29;;;;;;;1999.90;999.90;;;15.50;99.90;;;;;;5076894;28;20028;-73
2023/08/27 02:25:54;;;;;;;1999.90;999.90;;;15.50;99.90;;;;;;5087633;28;20032;-69
2023/08/27 02:28:20;;;;;;;1999.90;999.90;;;15.60;99.90;;;;;;5094787;28;20098;-69
2023/08/27 02:30:56;;;;;;;1999.90;999.90;;;15.60;99.90;;;;;;5087514;28;20501;-73
2023/08/27 02:33:22;;;;;;;1999.90;999.90;;;15.60;99.90;;;;;;5076394;28;20035;-73
2023/08/27 02:35:48;;;;;;;1999.90;999.90;;;15.70;99.90;;;;;;5084126;28;20031;-68
2023/08/27 02:38:13;;;;;;;1999.90;999.90;;;15.70;99.90;;;;;;5074199;28;20125;-73
2023/08/27 02:40:40;;;;;;;1999.90;999.90;;;15.80;99.90;;;;;;5074284;28;20028;-69
2023/08/27 02:43:05;;;;;;;1999.90;999.90;;;15.80;99.90;;;;;;5074492;28;20418;-73
2023/08/27 02:45:31;;;;;;;1999.90;999.90;;;15.80;99.90;;;;;;5077577;28;20043;-72
2023/08/27 02:47:56;;;;;;;1999.90;999.90;;;15.90;99.90;;;;;;5092836;28;20035;-73
2023/08/27 02:50:22;;;;;;;1999.90;999.90;;;15.90;99.90;;;;;;5094071;28;20039;-73
2023/08/27 02:52:48;;;;;;;1999.90;999.90;;;15.90;99.90;;;;;;5094634;28;20024;-69
2023/08/27 02:55:13;;;;;;;1999.90;999.90;;;15.90;99.90;;;;;;5092461;28;20103;-70
2023/08/27 02:57:39;;;;;;;1999.90;999.90;;;15.90;99.90;;;;;;5094476;28;20024;-73
2023/08/27 03:00:05;;;;;;;1999.90;999.90;;;15.80;99.90;;;;;;5093959;28;20066;-73
2023/08/27 03:02:31;;;;;;;1999.90;999.90;;;15.80;99.90;;;;;;5094000;28;20483;-73
2023/08/27 03:05:01;;;;;;;1999.90;999.90;;;15.80;99.90;;;;;;5084097;28;20037;-69
2023/08/27 03:07:27;;;;;;;1999.90;999.90;;;15.70;99.90;;;;;;5079725;28;20391;-69
2023/08/27 03:09:52;;;;;;;1999.90;999.90;;;15.70;99.90;;;;;;5093760;28;20028;-73
2023/08/27 03:12:18;;;;;;;1999.90;999.90;;;15.70;99.90;;;;;;5073649;28;20020;-73
2023/08/27 03:14:43;;;;;;;1999.90;999.90;;;15.70;99.90;;;;;;5084758;28;20031;-73
2023/08/27 03:17:09;;;;;;;1999.90;999.90;;;15.70;99.90;;;;;;5094010;28;20028;-73
2023/08/27 03:19:35;;;;;;;1999.90;999.90;;;15.60;99.90;;;;;;5092213;28;20054;-69
2023/08/27 03:22:00;;;;;;;1999.90;999.90;;;15.60;99.90;;;;;;5091773;28;20028;-69
2023/08/27 03:24:26;;;;;;;1999.90;999.90;;;15.60;99.90;;;;;;5093428;28;20031;-73
2023/08/27 03:26:52;;;;;;;1999.90;999.90;;;15.60;99.90;;;;;;5092239;28;20521;-73
2023/08/27 03:29:17;;;;;;;1999.90;999.90;;;15.50;99.90;;;;;;5093569;28;20034;-73
2023/08/27 03:31:43;;;;;;;1999.90;999.90;;;15.50;99.90;;;;;;5081573;28;20020;-69
2023/08/27 03:34:09;;;;;;;1999.90;999.90;;;15.40;99.90;;;;;;5089322;28;20047;-69
2023/08/27 03:36:35;;;;;;;1999.90;999.90;;;15.40;99.90;;;;;;5092234;28;20394;-69
2023/08/27 03:39:01;;;;;;;1999.90;999.90;;;15.40;99.90;;;;;;5088168;28;20027;-69
2023/08/27 03:41:26;;;;;;;1999.90;999.90;;;15.30;99.90;;;;;;5093309;28;20081;-73
2023/08/27 03:43:52;;;;;;;1999.90;999.90;;;15.30;99.90;;;;;;5086893;28;20078;-69
2023/08/27 03:46:18;;;;;;;1999.90;999.90;;;15.20;99.90;;;;;;5073151;28;20039;-68
2023/08/27 03:48:43;;;;;;;1999.90;999.90;;;15.20;99.90;;;;;;5073105;28;20024;-69
2023/08/27 03:51:09;;;;;;;1999.90;999.90;;;15.20;99.90;;;;;;5073176;28;20028;-73
2023/08/27 03:53:36;;;;;;;1999.90;999.90;;;15.10;99.90;;;;;;5072978;28;20104;-73
2023/08/27 03:56:03;;;;;;;1999.90;999.90;;;15.10;99.90;;;;;;5072740;28;20135;-69
2023/08/27 03:58:29;;;;;;;1999.90;999.90;;;15.10;99.90;;;;;;5072730;28;20067;-69
2023/08/27 04:00:55;;;;;;;1999.90;999.90;;;15.10;99.90;;;;;;5072916;28;20044;-69
2023/08/27 04:03:20;;;;;;;1999.90;999.90;;;15.00;99.90;;;;;;5073764;28;20143;-73
2023/08/27 04:05:49;;;;;;;1999.90;999.90;;;15.00;99.90;;;;;;5085534;28;20074;-73
2023/08/27 04:08:18;;;;;;;1999.90;999.90;;;14.90;99.90;;;;;;5078830;28;20445;-73
2023/08/27 04:10:52;;;;;;;1999.90;999.90;;;14.90;99.90;;;;;;5076851;28;20020;-69
2023/08/27 04:13:20;;;;;;;1999.90;999.90;;;14.80;99.90;;;;;;5079187;28;20103;-68
2023/08/27 04:15:56;;;;;;;1999.90;999.90;;;14.80;99.90;;;;;;5091894;28;20386;-72
2023/08/27 04:18:22;;;;;;;1999.90;999.90;;;14.70;99.90;;;;;;5092437;28;20028;-73
2023/08/27 04:20:49;;;;;;;1999.90;999.90;;;14.70;99.90;;;;;;5092944;28;20031;-72
2023/08/27 04:23:14;;;;;;;1999.90;999.90;;;14.60;99.90;;;;;;5089680;28;20587;-69
2023/08/27 04:25:43;;;;;;;1999.90;999.90;;;14.60;99.90;;;;;;5091380;28;20116;-69
2023/08/27 04:28:09;;;;;;;1999.90;999.90;;;14.60;99.90;;;;;;5092868;28;20476;-73
2023/08/27 04:30:35;;;;;;;1999.90;999.90;;;14.60;99.90;;;;;;5085964;28;20013;-73
2023/08/27 04:33:01;;;;;;;1999.90;999.90;;;14.60;99.90;;;;;;5077578;28;20056;-73
2023/08/27 04:35:26;;;;;;;1999.90;999.90;;;14.60;99.90;;;;;;5092850;28;20031;-69
2023/08/27 04:37:52;;;;;;;1999.90;999.90;;;14.60;99.90;;;;;;5092703;28;20032;-69
2023/08/27 04:40:18;;;;;;;1999.90;999.90;;;14.50;99.90;;;;;;5092529;28;20111;-69
2023/08/27 04:42:43;;;;;;;1999.90;999.90;;;14.50;99.90;;;;;;5092824;28;20024;-73
2023/08/27 04:45:10;;;;;;;1999.90;999.90;;;14.40;99.90;;;;;;5075836;28;20064;-73
2023/08/27 04:47:35;;;;;;;1999.90;999.90;;;14.40;99.90;;;;;;5072667;28;20028;-72
2023/08/27 04:50:01;;;;;;;1999.90;999.90;;;14.40;99.90;;;;;;5072457;28;20031;-72
2023/08/27 04:52:26;;;;;;;1999.90;999.90;;;14.40;99.90;;;;;;5072379;28;20017;-68
2023/08/27 04:54:52;;;;;;;1999.90;999.90;;;14.30;99.90;;;;;;5084800;28;20035;-73
2023/08/27 04:57:18;;;;;;;1999.90;999.90;;;14.40;99.90;;;;;;5087665;28;20020;-72
2023/08/27 04:59:44;;;;;;;1999.90;999.90;;;14.30;99.90;;;;;;5089521;28;20043;-70
2023/08/27 05:02:09;;;;;;;1999.90;999.90;;;14.30;99.90;;;;;;5092333;28;20403;-69
2023/08/27 05:04:35;;;;;;;1999.90;999.90;;;14.30;99.90;;;;;;5083277;28;20151;-68
2023/08/27 05:07:00;;;;;;;1999.90;999.90;;;14.20;99.90;;;;;;5080278;28;20023;-73
2023/08/27 05:09:26;;;;;;;1999.90;999.90;;;14.20;99.90;;;;;;5085684;28;20036;-73
2023/08/27 05:11:52;;;;;;;1999.90;999.90;;;14.20;99.90;;;;;;5074794;28;20028;-73
2023/08/27 05:14:18;;;;;;;1999.90;999.90;;;14.20;99.90;;;;;;5071908;28;20356;-73
2023/08/27 05:16:44;;;;;;;1999.90;999.90;;;14.20;99.90;;;;;;5079696;28;20028;-70
2023/08/27 05:19:09;;;;;;;1999.90;999.90;;;14.10;99.90;;;;;;5089673;28;20398;-72
2023/08/27 05:21:36;;;;;;;1999.90;999.90;;;14.10;99.90;;;;;;5085854;28;20035;-72
2023/08/27 05:24:01;;;;;;;1999.90;999.90;;;14.10;99.90;;;;;;5089717;28;20024;-73
2023/08/27 05:26:27;;;;;;;1999.90;999.90;;;14.10;99.90;;;;;;5093820;28;20103;-68
2023/08/27 05:28:53;;;;;;;1999.90;999.90;;;14.10;99.90;;;;;;5093851;28;20077;-68
2023/08/27 05:31:19;;;;;;;1999.90;999.90;;;14.10;99.90;;;;;;5087370;28;20028;-69
2023/08/27 05:33:45;;;;;;;1999.90;999.90;;;14.10;99.90;;;;;;5087361;28;20028;-73
2023/08/27 05:36:10;;;;;;;1999.90;999.90;;;14.10;99.90;;;;;;5088586;28;20106;-68
2023/08/27 05:38:36;;;;;;;1999.90;999.90;;;14.10;99.90;;;;;;5090752;28;20028;-68
2023/08/27 05:41:01;;;;;;;1999.90;999.90;;;14.10;99.90;;;;;;5093819;28;20024;-73
2023/08/27 05:43:27;;;;;;;1999.90;999.90;;;14.10;99.90;;;;;;5093504;28;20020;-69
2023/08/27 05:45:53;;;;;;;1999.90;999.90;;;14.10;99.90;;;;;;5086717;28;20028;-73
2023/08/27 05:48:18;;;;;;;1999.90;999.90;;;14.10;99.90;;;;;;5084145;28;20024;-69
2023/08/27 05:50:44;;;;;;;1999.90;999.90;;;14.10;99.90;;;;;;5075357;28;20016;-73
2023/08/27 05:53:11;;;;;;;1999.90;999.90;;;14.20;99.90;;;;;;5074311;28;20104;-73
2023/08/27 05:55:37;;;;;;;1999.90;999.90;;;14.20;99.90;;;;;;5074795;28;20116;-69
2023/08/27 05:58:03;;;;;;;1999.90;999.90;;;14.20;99.90;;;;;;5075868;28;20144;-69
2023/08/27 06:00:29;;;;;;;1999.90;999.90;;;14.20;99.90;;;;;;5091934;28;20356;-73
2023/08/27 06:02:55;;;;;;;1999.90;999.90;;;14.20;99.90;;;;;;5075103;28;20415;-73
2023/08/27 06:05:20;;;;;;;1999.90;999.90;;;14.20;99.90;;;;;;5086911;28;20032;-73
2023/08/27 06:07:46;;;;;;;1999.90;999.90;;;14.30;99.90;;;;;;5085490;28;20032;-68
2023/08/27 06:10:12;;;;;;;1999.90;999.90;;;14.30;99.90;;;;;;5087693;28;20039;-68
2023/08/27 06:12:37;;;;;;;1999.90;999.90;;;14.40;99.90;;;;;;5074795;28;20032;-73
2023/08/27 06:15:04;;;;;;;1999.90;999.90;;;14.40;99.90;;;;;;5081472;28;20031;-72
2023/08/27 06:17:30;;;;;;;1999.90;999.90;;;14.50;99.90;;;;;;5089050;28;20024;-69
2023/08/27 06:19:55;;;;;;;1999.90;999.90;;;14.50;99.90;;;;;;5089729;28;20103;-69
2023/08/27 06:22:21;;;;;;;1999.90;999.90;;;14.50;99.90;;;;;;5094084;28;20030;-69
2023/08/27 06:24:47;;;;;;;1999.90;999.90;;;14.50;99.90;;;;;;5087601;28;20073;-72
2023/08/27 06:27:15;;;;;;;1999.90;999.90;;;14.50;99.90;;;;;;5091709;28;20522;-68
2023/08/27 06:29:44;;;;;;;1999.90;999.90;;;14.60;99.90;;;;;;5093803;28;20089;-73
2023/08/27 06:32:10;;;;;;;1999.90;999.90;;;14.60;99.90;;;;;;5087817;28;20059;-72
2023/08/27 06:34:36;;;;;;;1999.90;999.90;;;14.70;99.90;;;;;;5094443;28;20024;-69
2023/08/27 06:37:02;;;;;;;1999.90;999.90;;;14.80;99.90;;;;;;5094255;28;20066;-69
2023/08/27 06:39:27;;;;;;;1999.90;999.90;;;14.90;99.90;;;;;;5092201;28;20031;-73
2023/08/27 06:41:53;;;;;;;1999.90;999.90;;;15.00;99.90;;;;;;5094445;28;20039;-73
2023/08/27 06:44:19;;;;;;;1999.90;999.90;;;15.10;99.90;;;;;;5090279;28;20493;-73
2023/08/27 06:46:45;;;;;;;1999.90;999.90;;;15.10;99.90;;;;;;5094161;28;20024;-69
2023/08/27 06:49:11;;;;;;;1999.90;999.90;;;15.20;99.90;;;;;;5088404;28;20025;-73
2023/08/27 06:51:36;;;;;;;1999.90;999.90;;;15.30;99.90;;;;;;5084778;28;20086;-73
2023/08/27 06:54:03;;;;;;;1999.90;999.90;;;15.30;99.90;;;;;;5085558;28;20605;-73
2023/08/27 06:56:28;;;;;;;1999.90;999.90;;;15.40;99.90;;;;;;5090915;28;20399;-73
2023/08/27 06:58:54;;;;;;;1999.90;999.90;;;15.60;99.90;;;;;;5094255;28;20020;-73
2023/08/27 07:01:20;;;;;;;1999.90;999.90;;;15.70;99.90;;;;;;5094323;28;20020;-69
2023/08/27 07:03:45;;;;;;;1999.90;999.90;;;15.90;99.90;;;;;;5087000;28;20043;-72
2023/08/27 07:06:11;;;;;;;1999.90;999.90;;;16.00;99.90;;;;;;5087428;28;20031;-69
2023/08/27 07:08:37;;;;;;;1999.90;999.90;;;16.10;99.90;;;;;;5092569;28;20020;-69
2023/08/27 07:11:05;;;;;;;1999.90;999.90;;;16.20;99.90;;;;;;5084229;28;20047;-73
2023/08/27 07:13:31;;;;;;;1999.90;999.90;;;16.30;99.90;;;;;;5080929;28;20495;-69
2023/08/27 07:15:59;;;;;;;1999.90;999.90;;;16.50;99.90;;;;;;5073727;28;20029;-69
2023/08/27 07:18:25;;;;;;;1999.90;999.90;;;16.60;99.90;;;;;;5073375;28;20368;-73
2023/08/27 07:20:51;;;;;;;1999.90;999.90;;;16.80;99.90;;;;;;5073829;28;20021;-73
2023/08/27 07:23:16;;;;;;;1999.90;999.90;;;16.80;99.90;;;;;;5084218;28;20107;-73
2023/08/27 07:25:42;;;;;;;1999.90;999.90;;;16.80;99.90;;;;;;5093859;28;20106;-69
2023/08/27 07:28:08;;;;;;;1999.90;999.90;;;16.90;99.90;;;;;;5093784;28;20436;-69
2023/08/27 07:30:35;;;;;;;1999.90;999.90;;;17.10;99.90;;;;;;5088219;28;20036;-73
2023/08/27 07:33:01;;;;;;;1999.90;999.90;;;17.20;99.90;;;;;;5084174;28;20517;-69
2023/08/27 07:35:27;;;;;;;1999.90;999.90;;;17.20;99.90;;;;;;5079757;28;20036;-73
2023/08/27 07:37:53;;;;;;;1999.90;999.90;;;17.30;99.90;;;;;;5093149;28;20016;-69
2023/08/27 07:40:18;;;;;;;1999.90;999.90;;;17.40;99.90;;;;;;5086899;28;20054;-69
2023/08/27 07:42:44;;;;;;;1999.90;999.90;;;17.40;99.90;;;;;;5074396;28;20024;-72
2023/08/27 07:45:10;;;;;;;1999.90;999.90;;;17.50;99.90;;;;;;5077803;28;20455;-73
2023/08/27 07:47:36;;;;;;;1999.90;999.90;;;17.70;99.90;;;;;;5073187;28;20479;-73
2023/08/27 07:50:01;;;;;;;1999.90;999.90;;;18.00;99.90;;;;;;5072353;28;20036;-73
2023/08/27 07:52:27;;;;;;;1999.90;999.90;;;18.30;99.90;;;;;;5077833;28;20123;-69
2023/08/27 07:54:53;;;;;;;1999.90;999.90;;;18.60;99.90;;;;;;5093302;28;20028;-73
2023/08/27 07:57:18;;;;;;;1999.90;999.90;;;18.70;99.90;;;;;;5087784;28;20522;-69
2023/08/27 07:59:44;;;;;;;1999.90;999.90;;;18.80;99.90;;;;;;5073121;28;20023;-73
2023/08/27 08:02:09;;;;;;;1999.90;999.90;;;18.90;99.90;;;;;;5077238;28;20081;-73
2023/08/27 08:04:35;;;;;;;1999.90;999.90;;;18.90;99.90;;;;;;5085406;28;20502;-73
2023/08/27 08:07:00;;;;;;;1999.90;999.90;;;19.70;99.90;;;;;;5084946;28;20036;-69
2023/08/27 08:09:26;;;;;;;1999.90;999.90;;;21.40;99.90;;;;;;5083265;28;20500;-73
2023/08/27 08:11:52;;;;;;;1999.90;999.90;;;23.40;99.90;;;;;;5072341;28;20037;-73
2023/08/27 08:14:17;;;;;;;1999.90;999.90;;;24.90;99.90;;;;;;5082183;28;20372;-73
2023/08/27 08:16:43;;;;;;;1999.90;999.90;;;25.30;99.90;;;;;;5085256;28;20024;-73
2023/08/27 08:19:09;;;;;;;1999.90;999.90;;;26.20;99.90;;;;;;5090000;28;20501;-74
2023/08/27 08:21:35;;;;;;;1999.90;999.90;;;26.60;99.90;;;;;;5092735;28;20103;-70
2023/08/27 08:24:01;;;;;;;1999.90;999.90;;;26.90;99.90;;;;;;5092686;28;20137;-74
2023/08/27 08:26:27;;;;;;;1999.90;999.90;;;27.30;99.90;;;;;;5092773;28;20078;-74
2023/08/27 08:28:53;;;;;;;1999.90;999.90;;;28.10;99.90;;;;;;5092890;28;20020;-74
2023/08/27 08:31:19;;;;;;;1999.90;999.90;;;28.30;99.90;;;;;;5084874;28;20034;-70
2023/08/27 08:33:45;;;;;;;1999.90;999.90;;;27.90;99.90;;;;;;5086577;28;20106;-70
2023/08/27 08:36:10;;;;;;;1999.90;999.90;;;28.40;99.90;;;;;;5073359;28;20028;-74
2023/08/27 08:38:36;;;;;;;1999.90;999.90;;;28.70;99.90;;;;;;5086908;28;20020;-74
2023/08/27 08:41:03;;;;;;;1999.90;999.90;;;29.90;99.90;;;;;;5092923;28;20032;-74
2023/08/27 08:43:52;;;;;;;1999.90;999.90;;;28.90;99.10;;;;;;5089022;28;20024;-74
2023/08/27 08:46:20;;;;;;;1999.90;999.90;;;29.10;99.50;;;;;;5073531;28;20027;-70
2023/08/27 08:48:49;;;;;;;1999.90;999.90;;;30.10;98.80;;;;;;5072466;28;20017;-74
2023/08/27 08:51:19;;;;;;;1999.90;999.90;;;30.00;97.30;;;;;;5072419;28;20077;-75
2023/08/27 08:53:49;;;;;;;1999.90;999.90;;;30.00;97.20;;;;;;5087333;28;20093;-73
2023/08/27 08:56:22;;;;;;;1999.90;999.90;;;29.20;96.20;;;;;;5084374;28;20122;-69
2023/08/27 08:59:06;;;;;;;1999.90;999.90;;;29.50;97.30;;;;;;5089499;28;20077;-69
2023/08/27 09:01:32;;;;;;;1999.90;999.90;;;30.30;96.50;;;;;;5090872;28;20032;-72
2023/08/27 09:04:01;;;;;;;1999.90;999.90;;;30.70;96.20;;;;;;5077029;28;20047;-72
2023/08/27 09:06:26;;;;;;;1999.90;999.90;;;30.60;95.40;;;;;;5081494;28;20487;-72
2023/08/27 09:08:52;;;;;;;1999.90;999.90;;;30.50;95.70;;;;;;5089958;28;20032;-69
2023/08/27 09:11:19;;;;;;;1999.90;999.90;;;31.20;95.70;;;;;;5084344;28;20029;-69
2023/08/27 09:13:45;;;;;;;1999.90;999.90;;;31.10;94.50;;;;;;5082366;28;20051;-72
2023/08/27 09:16:11;;;;;;;1999.90;999.90;;;29.90;95.20;;;;;;5096104;28;20445;-73
2023/08/27 09:18:37;;;;;;;1999.90;999.90;;;29.40;95.80;;;;;;5096434;28;20363;-72
2023/08/27 09:21:02;;;;;;;1999.90;999.90;;;29.40;97.20;;;;;;5095536;28;20085;-72
2023/08/27 09:23:29;;;;;;;1999.90;999.90;;;31.40;96.70;;;;;;5095774;28;20062;-69
2023/08/27 09:25:58;;;;;;;1999.90;999.90;;;30.70;95.70;;;;;;5096030;28;20038;-69
2023/08/27 09:28:24;;;;;;;1999.90;999.90;;;30.70;95.50;;;;;;5095821;28;20020;-73
2023/08/27 09:30:51;;;;;;;1999.90;999.90;;;30.10;95.60;;;;;;5090775;28;20032;-73
2023/08/27 09:33:17;;;;;;;1999.90;999.90;;;30.30;95.90;;;;;;5086942;28;20031;-72
2023/08/27 09:35:43;;;;;;;1999.90;999.90;;;30.00;95.70;;;;;;5095801;28;20122;-69
2023/08/27 09:38:15;;;;;;;1999.90;999.90;;;30.30;95.50;;;;;;5095093;28;20020;-69
2023/08/27 09:40:41;;;;;;;1999.90;999.90;;;30.20;96.50;;;;;;5095595;28;20080;-72
2023/08/27 09:43:09;;;;;;;1999.90;999.90;;;28.70;96.30;;;;;;5095225;28;20025;-71
2023/08/27 09:45:36;;;;;;;1999.90;999.90;;;29.00;97.60;;;;;;5075272;28;20089;-72
2023/08/27 09:48:03;;;;;;;1999.90;999.90;;;29.20;97.50;;;;;;5073999;28;20085;-69
2023/08/27 09:50:30;;;;;;;1999.90;999.90;;;29.50;96.90;;;;;;5075214;28;20020;-69
2023/08/27 09:53:12;;;;;;;1999.90;999.90;;;29.60;97.50;;;;;;5075266;28;20055;-72
2023/08/27 09:55:38;;;;;;;1999.90;999.90;;;28.20;98.70;;;;;;5086247;28;20055;-74
2023/08/27 09:58:04;;;;;;;1999.90;999.90;;;25.40;99.90;;;;;;5095356;28;20425;-74
2023/08/27 10:00:31;;;;;;;1999.90;999.90;;;23.80;99.90;;;;;;5095453;28;20442;-74
2023/08/27 10:02:57;;;;;;;1999.90;999.90;;;25.40;99.90;;;;;;5095295;28;20499;-70
2023/08/27 10:05:31;;;;;;;1999.90;999.90;;;26.70;99.90;;;;;;5092052;28;20511;-74
2023/08/27 10:07:58;;;;;;;1999.90;999.90;;;25.50;99.90;;;;;;5075798;28;20499;-74
2023/08/27 10:10:25;;;;;;;1999.90;999.90;;;26.00;99.90;;;;;;5087730;28;20056;-74
2023/08/27 10:12:52;;;;;;;1999.90;999.90;;;26.60;99.90;;;;;;5074199;28;20031;-74
2023/08/27 10:15:18;;;;;;;1999.90;999.90;;;27.10;99.90;;;;;;5074755;28;20514;-71
2023/08/27 10:17:45;;;;;;;1999.90;999.90;;;27.00;99.90;;;;;;5086508;28;20024;-70
2023/08/27 10:20:11;;;;;;;1999.90;999.90;;;26.40;99.90;;;;;;5094903;28;20020;-74
2023/08/27 10:22:37;;;;;;;1999.90;999.90;;;26.30;99.90;;;;;;5094723;28;20039;-70
2023/08/27 10:25:06;;;;;;;1999.90;999.90;;;25.10;99.90;;;;;;5093850;28;20111;-73
2023/08/27 10:27:32;;;;;;;1999.90;999.90;;;24.80;99.90;;;;;;5093577;28;20094;-70
2023/08/27 10:29:59;;;;;;;1999.90;999.90;;;25.20;99.90;;;;;;5092696;28;21334;-71
2023/08/27 10:32:24;;;;;;;1999.90;999.90;;;25.00;99.90;;;;;;5083560;28;20029;-70
2023/08/27 10:34:50;;;;;;;1999.90;999.90;;;24.80;99.90;;;;;;5094671;28;20024;-71
2023/08/27 10:37:19;;;;;;;1999.90;999.90;;;23.50;99.90;;;;;;5094286;28;20077;-73
2023/08/27 10:39:47;;;;;;;1999.90;999.90;;;23.50;99.90;;;;;;5094629;28;20055;-74
2023/08/27 10:42:33;;;;;;;1999.90;999.90;;;23.00;99.90;;;;;;5094661;28;20079;-70
2023/08/27 10:45:20;;;;;;;1999.90;999.90;;;23.50;99.90;;;;;;5079334;28;20031;-73
2023/08/27 10:48:04;;;;;;;1999.90;999.90;;;23.50;99.90;;;;;;5074072;28;20475;-73
2023/08/27 10:50:51;;;;;;;1999.90;999.90;;;24.00;99.90;;;;;;5072905;28;20028;-71
2023/08/27 10:53:19;;;;;;;1999.90;999.90;;;24.60;99.90;;;;;;5074382;28;20012;-70
2023/08/27 10:55:50;;;;;;;1999.90;999.90;;;23.40;99.90;;;;;;5074154;28;20055;-70
2023/08/27 10:58:21;;;;;;;1999.90;999.90;;;23.30;99.90;;;;;;5092571;28;20016;-73
2023/08/27 11:01:07;;;;;;;1999.90;999.90;;;23.00;99.90;;;;;;5094192;28;20024;-73
2023/08/27 11:03:56;;;;;;;1999.90;999.90;;;22.50;99.90;;;;;;5091965;28;20040;-73
2023/08/27 11:06:44;;;;;;;1999.90;999.90;;;22.70;99.90;;;;;;5078111;28;20067;-73
2023/08/27 11:09:29;;;;;;;1999.90;999.90;;;22.50;99.90;;;;;;5082618;28;20107;-70
2023/08/27 11:11:59;;;;;;;1999.90;999.90;;;22.90;99.90;;;;;;5076912;28;20029;-70
2023/08/27 11:14:25;;;;;;;1999.90;999.90;;;22.40;99.90;;;;;;5077710;28;20135;-71
2023/08/27 11:17:05;;;;;;;1999.90;999.90;;;22.70;99.90;;;;;;5088869;28;20547;-70
2023/08/27 11:19:36;;;;;;;1999.90;999.90;;;23.20;99.90;;;;;;5090575;28;20020;-70
2023/08/27 11:22:08;;;;;;;1999.90;999.90;;;23.70;99.90;;;;;;5088126;28;20407;-70
2023/08/27 11:24:35;;;;;;;1999.90;999.90;;;22.50;99.90;;;;;;5082851;28;20020;-74
2023/08/27 11:27:02;;;;;;;1999.90;999.90;;;22.70;99.90;;;;;;5078544;28;20043;-73
2023/08/27 11:29:29;;;;;;;1999.90;999.90;;;24.00;99.90;;;;;;5093860;28;20020;-73
2023/08/27 11:31:56;;;;;;;1999.90;999.90;;;22.90;99.90;;;;;;5085282;28;20078;-70
2023/08/27 11:34:22;;;;;;;1999.90;999.90;;;22.60;99.90;;;;;;5093459;28;20031;-70
2023/08/27 11:36:49;;;;;;;1999.90;999.90;;;22.30;99.90;;;;;;5082609;28;20032;-73
2023/08/27 11:39:16;;;;;;;1999.90;999.90;;;22.80;99.90;;;;;;5093677;28;20432;-73
2023/08/27 11:41:45;;;;;;;1999.90;999.90;;;22.70;99.90;;;;;;5092604;28;20098;-73
2023/08/27 11:44:11;;;;;;;1999.90;999.90;;;23.00;99.90;;;;;;5079762;28;20025;-73
2023/08/27 11:46:38;;;;;;;1999.90;999.90;;;23.10;99.90;;;;;;5062877;28;20019;-70
2023/08/27 11:49:05;;;;;;;1999.90;999.90;;;23.40;99.90;;;;;;5093198;28;20024;-73
2023/08/27 11:51:33;;;;;;;1999.90;999.90;;;23.60;99.90;;;;;;5092375;28;20035;-73
2023/08/27 11:53:58;;;;;;;1999.90;999.90;;;23.40;99.90;;;;;;5093452;28;20024;-73
2023/08/27 11:56:26;;;;;;;1999.90;999.90;;;23.50;99.90;;;;;;5092424;28;20027;-73
2023/08/27 11:58:54;;;;;;;1999.90;999.90;;;23.80;99.90;;;;;;5093112;28;20281;-71